EZY4286 LMML-LIRN
Flight info
| Callsign | EZY4286 |
|---|---|
| Flight time | N/A |
| Altitude | 36000 |
| Route | GZO P623 OLLEK DCT ARFOL DCT ROMSU DCT UXUTA DCT DIRED DCT NAXES/N0378F180 T92 SOR |
| Aircraft | A320/M-SDE3FGHIRWY/LB1 |
Departure
| Time | 2026-04-30 14:38 |
|---|---|
| Airport | Malta International Airport (LMML) |
Arrival
| Time | N/A |
|---|---|
| Airport | Naples International Airport (LIRN) |
| Time | Latitude | Longitude | Altitude | Speed | Heading |
|---|---|---|---|---|---|
| 2026-04-30 14:07 | 35.84791 | 14.49298 | 259 ft | 0 kts | 224° |
| 2026-04-30 14:29 | 35.84795 | 14.49303 | 259 ft | 4 kts | 225° |
| 2026-04-30 14:29 | 35.84823 | 14.49345 | 259 ft | 4 kts | 245° |
| 2026-04-30 14:30 | 35.84825 | 14.49381 | 259 ft | 0 kts | 315° |
| 2026-04-30 14:32 | 35.84834 | 14.49370 | 259 ft | 5 kts | 315° |
| 2026-04-30 14:32 | 35.84870 | 14.49327 | 259 ft | 7 kts | 315° |
| 2026-04-30 14:32 | 35.84902 | 14.49287 | 259 ft | 6 kts | 315° |
| 2026-04-30 14:33 | 35.84922 | 14.49241 | 258 ft | 9 kts | 282° |
| 2026-04-30 14:33 | 35.84944 | 14.49042 | 258 ft | 13 kts | 308° |
| 2026-04-30 14:33 | 35.84981 | 14.48949 | 259 ft | 11 kts | 288° |
| 2026-04-30 14:34 | 35.84990 | 14.48906 | 259 ft | 0 kts | 284° |
| 2026-04-30 14:35 | 35.85002 | 14.48852 | 259 ft | 11 kts | 284° |
| 2026-04-30 14:35 | 35.85026 | 14.48745 | 262 ft | 12 kts | 288° |
| 2026-04-30 14:35 | 35.85070 | 14.48614 | 267 ft | 17 kts | 298° |
| 2026-04-30 14:36 | 35.85155 | 14.48483 | 272 ft | 24 kts | 315° |
| 2026-04-30 14:36 | 35.85278 | 14.48331 | 272 ft | 26 kts | 315° |
| 2026-04-30 14:36 | 35.85399 | 14.48182 | 272 ft | 24 kts | 318° |
| 2026-04-30 14:36 | 35.85523 | 14.48078 | 272 ft | 15 kts | 333° |
| 2026-04-30 14:37 | 35.85530 | 14.48022 | 274 ft | 9 kts | 162° |
| 2026-04-30 14:37 | 35.85511 | 14.48040 | 274 ft | 0 kts | 134° |
| 2026-04-30 14:37 | 35.85511 | 14.48041 | 273 ft | 3 kts | 134° |
| 2026-04-30 14:37 | 35.85323 | 14.48274 | 272 ft | 75 kts | 135° |
| 2026-04-30 14:38 | 35.84808 | 14.48911 | 259 ft | 134 kts | 135° |
| 2026-04-30 14:38 | 35.84043 | 14.49855 | 406 ft | 166 kts | 134° |
| 2026-04-30 14:38 | 35.83229 | 14.50858 | 1126 ft | 165 kts | 135° |
| 2026-04-30 14:38 | 35.82291 | 14.51720 | 1701 ft | 175 kts | 150° |
| 2026-04-30 14:39 | 35.81084 | 14.52304 | 2045 ft | 199 kts | 167° |
| 2026-04-30 14:39 | 35.79630 | 14.52444 | 2364 ft | 221 kts | 185° |
| 2026-04-30 14:39 | 35.78058 | 14.51944 | 2711 ft | 246 kts | 206° |
| 2026-04-30 14:40 | 35.75599 | 14.48821 | 4047 ft | 266 kts | 242° |
| 2026-04-30 14:40 | 35.74650 | 14.46854 | 5008 ft | 268 kts | 242° |
| 2026-04-30 14:40 | 35.73687 | 14.44882 | 5927 ft | 271 kts | 242° |
| 2026-04-30 14:40 | 35.72721 | 14.42869 | 6789 ft | 274 kts | 246° |
| 2026-04-30 14:41 | 35.72176 | 14.40690 | 7596 ft | 273 kts | 266° |
| 2026-04-30 14:41 | 35.72297 | 14.38337 | 8488 ft | 271 kts | 287° |
| 2026-04-30 14:41 | 35.73073 | 14.36227 | 9387 ft | 271 kts | 306° |
| 2026-04-30 14:41 | 35.74396 | 14.34576 | 10241 ft | 273 kts | 324° |
| 2026-04-30 14:42 | 35.76121 | 14.33529 | 10913 ft | 285 kts | 336° |
| 2026-04-30 14:42 | 35.78047 | 14.32612 | 11156 ft | 308 kts | 336° |
| 2026-04-30 14:42 | 35.80126 | 14.31638 | 11449 ft | 328 kts | 337° |
| 2026-04-30 14:42 | 35.82286 | 14.30636 | 12067 ft | 335 kts | 337° |
| 2026-04-30 14:43 | 35.84483 | 14.29618 | 12776 ft | 339 kts | 336° |
| 2026-04-30 14:43 | 35.86674 | 14.28599 | 13510 ft | 342 kts | 336° |
| 2026-04-30 14:43 | 35.88909 | 14.27553 | 14190 ft | 345 kts | 336° |
| 2026-04-30 14:43 | 35.91167 | 14.26487 | 14843 ft | 348 kts | 336° |
| 2026-04-30 14:44 | 35.93437 | 14.25410 | 15492 ft | 351 kts | 336° |
| 2026-04-30 14:44 | 35.95734 | 14.24322 | 16142 ft | 354 kts | 335° |
| 2026-04-30 14:44 | 35.98046 | 14.23227 | 16783 ft | 357 kts | 335° |
| 2026-04-30 14:44 | 36.00427 | 14.22296 | 17389 ft | 364 kts | 345° |
| 2026-04-30 14:45 | 36.02986 | 14.22060 | 18004 ft | 374 kts | 358° |
| 2026-04-30 14:45 | 36.05547 | 14.22616 | 18554 ft | 385 kts | 12° |
| 2026-04-30 14:45 | 36.08047 | 14.24045 | 19080 ft | 397 kts | 27° |
| 2026-04-30 14:45 | 36.10329 | 14.25914 | 19599 ft | 401 kts | 28° |
| 2026-04-30 14:46 | 36.12662 | 14.27834 | 20107 ft | 403 kts | 28° |
| 2026-04-30 14:46 | 36.15002 | 14.29762 | 20662 ft | 405 kts | 28° |
| 2026-04-30 14:46 | 36.17363 | 14.31704 | 21191 ft | 407 kts | 28° |
| 2026-04-30 14:46 | 36.18928 | 14.32990 | 21521 ft | 409 kts | 28° |
| 2026-04-30 14:47 | 36.22120 | 14.35609 | 22176 ft | 412 kts | 28° |
| 2026-04-30 14:47 | 36.24516 | 14.37580 | 22664 ft | 415 kts | 28° |
| 2026-04-30 14:47 | 36.26934 | 14.39568 | 23135 ft | 417 kts | 28° |
| 2026-04-30 14:47 | 36.29327 | 14.41539 | 23585 ft | 420 kts | 28° |
| 2026-04-30 14:48 | 36.31767 | 14.43552 | 23978 ft | 423 kts | 28° |
| 2026-04-30 14:48 | 36.34220 | 14.45580 | 24358 ft | 425 kts | 28° |
| 2026-04-30 14:48 | 36.36692 | 14.47628 | 24737 ft | 427 kts | 28° |
| 2026-04-30 14:48 | 36.39175 | 14.49684 | 25102 ft | 430 kts | 28° |
| 2026-04-30 14:49 | 36.41671 | 14.51750 | 25472 ft | 432 kts | 28° |
| 2026-04-30 14:49 | 36.44180 | 14.53828 | 25818 ft | 434 kts | 28° |
| 2026-04-30 14:49 | 36.46704 | 14.55918 | 26174 ft | 436 kts | 27° |
| 2026-04-30 14:49 | 36.49340 | 14.57756 | 26514 ft | 432 kts | 18° |
| 2026-04-30 14:50 | 36.55006 | 14.59822 | 27202 ft | 425 kts | 4° |
| 2026-04-30 14:50 | 36.57926 | 14.60487 | 27582 ft | 427 kts | 4° |
| 2026-04-30 14:51 | 36.62808 | 14.61605 | 28166 ft | 430 kts | 4° |
| 2026-04-30 14:51 | 36.65758 | 14.62283 | 28495 ft | 432 kts | 4° |
| 2026-04-30 14:51 | 36.71700 | 14.63655 | 29122 ft | 436 kts | 4° |
| 2026-04-30 14:52 | 36.74695 | 14.64348 | 29429 ft | 437 kts | 4° |
| 2026-04-30 14:52 | 36.80707 | 14.65739 | 30037 ft | 441 kts | 4° |
| 2026-04-30 14:52 | 36.83729 | 14.66436 | 30366 ft | 441 kts | 4° |
| 2026-04-30 14:53 | 36.89746 | 14.67808 | 31104 ft | 438 kts | 4° |
| 2026-04-30 14:53 | 36.92737 | 14.68484 | 31480 ft | 436 kts | 4° |
| 2026-04-30 14:54 | 36.98655 | 14.69826 | 32229 ft | 433 kts | 4° |
| 2026-04-30 14:54 | 37.04573 | 14.71171 | 33011 ft | 431 kts | 3° |
| 2026-04-30 14:55 | 37.10437 | 14.72513 | 33860 ft | 426 kts | 3° |
| 2026-04-30 14:55 | 37.13347 | 14.73180 | 34215 ft | 424 kts | 3° |
| 2026-04-30 14:55 | 37.19151 | 14.74503 | 34780 ft | 423 kts | 3° |
| 2026-04-30 14:56 | 37.24951 | 14.75407 | 35277 ft | 414 kts | 352° |
| 2026-04-30 14:56 | 37.30635 | 14.74913 | 35773 ft | 411 kts | 349° |
| 2026-04-30 14:57 | 37.33494 | 14.74642 | 35980 ft | 412 kts | 349° |
| 2026-04-30 14:58 | 37.44953 | 14.73573 | 36035 ft | 413 kts | 349° |
| 2026-04-30 14:58 | 37.53558 | 14.72782 | 36039 ft | 413 kts | 349° |
| 2026-04-30 15:00 | 37.67887 | 14.71438 | 36032 ft | 413 kts | 349° |
| 2026-04-30 15:01 | 37.79348 | 14.70346 | 36075 ft | 414 kts | 349° |
| 2026-04-30 15:01 | 37.87970 | 14.69537 | 36070 ft | 413 kts | 349° |
| 2026-04-30 15:02 | 37.93681 | 14.69002 | 36072 ft | 413 kts | 349° |
| 2026-04-30 15:03 | 38.07985 | 14.67498 | 36082 ft | 411 kts | 349° |
| 2026-04-30 15:04 | 38.22200 | 14.65998 | 36104 ft | 411 kts | 349° |
| 2026-04-30 15:06 | 38.36422 | 14.64500 | 36083 ft | 411 kts | 349° |
| 2026-04-30 15:07 | 38.47821 | 14.63285 | 36086 ft | 411 kts | 349° |
| 2026-04-30 15:08 | 38.59213 | 14.62080 | 36072 ft | 410 kts | 349° |
| 2026-04-30 15:09 | 38.73320 | 14.60577 | 36084 ft | 410 kts | 349° |
| 2026-04-30 15:10 | 38.84665 | 14.59362 | 36079 ft | 409 kts | 349° |
| 2026-04-30 15:11 | 39.01682 | 14.57525 | 36064 ft | 409 kts | 348° |
| 2026-04-30 15:13 | 39.15901 | 14.56003 | 36078 ft | 409 kts | 348° |
| 2026-04-30 15:14 | 39.35724 | 14.53849 | 36069 ft | 409 kts | 348° |
| 2026-04-30 15:17 | 39.61232 | 14.50878 | 35749 ft | 405 kts | 346° |
| 2026-04-30 15:18 | 39.75181 | 14.48267 | 31868 ft | 410 kts | 346° |
| 2026-04-30 15:19 | 39.83783 | 14.46756 | 29251 ft | 415 kts | 346° |